createdAt,value
2023-04-12T00:04:28.863Z,2.40
2023-04-12T00:09:34.073Z,1.80
2023-04-12T00:14:37.416Z,2.37
2023-04-12T00:19:43.863Z,1.70
2023-04-12T00:24:47.484Z,1.97
2023-04-12T00:29:50.844Z,2.17
2023-04-12T00:34:55.657Z,2.50
2023-04-12T00:39:59.822Z,2.60
2023-04-12T00:45:03.016Z,3.07
2023-04-12T00:50:09.868Z,3.07
2023-04-12T00:55:13.328Z,2.67
2023-04-12T01:00:17.864Z,2.90
2023-04-12T01:05:24.555Z,2.50
2023-04-12T01:10:36.810Z,2.50
2023-04-12T01:15:49.236Z,2.67
2023-04-12T01:21:07.113Z,2.60
2023-04-12T01:26:34.899Z,2.90
2023-04-12T01:31:42.815Z,2.50
2023-04-12T01:36:50.437Z,2.30
2023-04-12T01:41:57.218Z,2.10
2023-04-12T01:47:02.863Z,2.30
2023-04-12T01:52:31.266Z,2.10
2023-04-12T01:57:40.502Z,1.90
2023-04-12T02:02:46.949Z,1.80
2023-04-12T02:07:55.542Z,1.57
2023-04-12T02:13:01.444Z,1.83
2023-04-12T02:18:06.991Z,1.87
2023-04-12T02:23:10.518Z,1.60
2023-04-12T02:28:13.884Z,1.40
2023-04-12T02:33:18.638Z,1.40
2023-04-12T02:38:23.129Z,1.13
2023-04-12T02:43:26.437Z,1.30
2023-04-12T02:48:31.224Z,1.57
2023-04-12T02:53:35.752Z,1.63
2023-04-12T02:58:40.099Z,1.30
2023-04-12T03:03:44.950Z,1.60
2023-04-12T03:08:48.269Z,1.90
2023-04-12T03:13:52.466Z,2.03
2023-04-12T03:18:57.749Z,1.80
2023-04-12T03:24:01.676Z,1.90
2023-04-12T03:29:10.071Z,1.70
2023-04-12T03:34:16.517Z,2.10
2023-04-12T03:39:19.871Z,2.00
2023-04-12T03:44:26.205Z,1.87
2023-04-12T03:49:31.637Z,1.90
2023-04-12T03:54:35.032Z,1.90
2023-04-12T03:59:38.297Z,2.10
2023-04-12T04:04:43.338Z,2.20
2023-04-12T04:09:46.772Z,1.90
2023-04-12T04:14:49.988Z,2.30
2023-04-12T04:19:54.646Z,1.90
2023-04-12T04:24:58.524Z,2.10
2023-04-12T04:30:02.980Z,1.80
2023-04-12T04:35:09.180Z,1.80
2023-04-12T04:40:13.126Z,1.60
2023-04-12T04:45:16.428Z,1.77
2023-04-12T04:50:22.972Z,1.83
2023-04-12T04:55:26.208Z,1.90
2023-04-12T05:00:29.807Z,1.67
2023-04-12T05:05:34.490Z,2.53
2023-04-12T05:10:40.363Z,2.43
2023-04-12T05:15:44.348Z,2.40
2023-04-12T05:20:50.141Z,2.30
2023-04-12T05:25:53.874Z,2.50
2023-04-12T05:30:57.069Z,2.23
2023-04-12T05:36:07.207Z,2.30
2023-04-12T05:41:10.498Z,2.37
2023-04-12T05:46:17.365Z,1.93
2023-04-12T05:51:34.099Z,1.37
2023-04-12T05:56:43.550Z,1.43
2023-04-12T06:01:46.900Z,1.30
2023-04-12T06:06:51.620Z,1.67
2023-04-12T06:11:54.934Z,1.90
2023-04-12T06:16:58.155Z,1.37
2023-04-12T06:22:02.970Z,1.00
2023-04-12T06:27:06.657Z,1.43
2023-04-12T06:32:09.815Z,1.63
2023-04-12T06:37:14.603Z,1.00
2023-04-12T06:42:19.008Z,1.40
2023-04-12T06:47:23.823Z,1.33
2023-04-12T06:52:28.932Z,1.40
2023-04-12T06:57:32.137Z,1.27
2023-04-12T07:02:35.416Z,1.30
2023-04-12T07:07:40.429Z,1.92
2023-04-12T07:12:44.607Z,1.90
2023-04-12T07:17:48.004Z,1.50
2023-04-12T07:22:52.950Z,1.48
2023-04-12T07:27:57.576Z,1.40
2023-04-12T07:33:18.602Z,1.25
2023-04-12T07:38:24.046Z,1.40
2023-04-12T07:43:27.472Z,1.55
2023-04-12T07:48:31.056Z,1.60
2023-04-12T07:53:35.971Z,1.70
2023-04-12T07:58:39.327Z,1.65
2023-04-12T08:03:43.228Z,1.48
2023-04-12T08:08:48.024Z,1.65
2023-04-12T08:13:52.735Z,1.65
2023-04-12T08:18:56.119Z,1.20
2023-04-12T08:24:01.269Z,1.40
2023-04-12T08:29:04.689Z,1.50
2023-04-12T08:34:26.633Z,1.58
2023-04-12T08:39:49.960Z,1.85
2023-04-12T08:44:53.859Z,1.40
2023-04-12T08:49:58.910Z,1.48
2023-04-12T08:55:05.244Z,1.65
2023-04-12T09:00:09.704Z,1.52
2023-04-12T09:05:14.513Z,1.30
2023-04-12T09:10:33.517Z,1.40
2023-04-12T09:15:36.833Z,1.50
2023-04-12T09:20:40.475Z,1.33
2023-04-12T09:25:48.611Z,1.58
2023-04-12T09:30:55.475Z,1.30
2023-04-12T09:36:03.113Z,1.30
2023-04-12T09:41:22.303Z,1.45
2023-04-12T09:46:29.487Z,1.75
2023-04-12T09:51:36.524Z,1.85
2023-04-12T09:56:42.368Z,1.33
2023-04-12T10:01:47.979Z,1.40
2023-04-12T10:06:51.620Z,1.30
2023-04-12T10:11:57.736Z,1.27
2023-04-12T10:17:02.112Z,1.23
2023-04-12T10:22:06.142Z,1.20
2023-04-12T10:27:11.045Z,1.20
2023-04-12T10:32:23.220Z,1.35
2023-04-12T10:37:59.343Z,0.90
2023-04-12T10:43:29.036Z,1.33
2023-04-12T10:48:35.045Z,1.45
2023-04-12T10:53:38.450Z,1.10
2023-04-12T10:59:00.825Z,1.20
2023-04-12T11:04:14.068Z,1.50
2023-04-12T11:09:22.971Z,1.30
2023-04-12T11:14:30.872Z,1.23
2023-04-12T11:19:34.874Z,1.13
2023-04-12T11:24:39.917Z,1.25
2023-04-12T11:29:45.259Z,1.52
2023-04-12T11:34:49.398Z,1.23
2023-04-12T11:39:54.936Z,1.40
2023-04-12T11:45:04.810Z,1.10
2023-04-12T11:50:13.422Z,1.52
2023-04-12T11:55:19.203Z,1.30
2023-04-12T12:00:27.741Z,1.33
2023-04-12T12:05:37.182Z,1.13
2023-04-12T12:10:52.441Z,1.35
2023-04-12T12:16:10.243Z,1.30
2023-04-12T12:21:14.982Z,1.10
2023-04-12T12:26:22.651Z,1.17
2023-04-12T12:31:28.825Z,1.20
2023-04-12T12:36:33.518Z,1.10
2023-04-12T12:41:37.004Z,1.00
2023-04-12T12:51:49.356Z,0.98
2023-04-12T12:56:52.706Z,0.90
2023-04-12T13:01:57.739Z,1.00
2023-04-12T13:07:04.935Z,1.00
2023-04-12T13:12:08.319Z,0.82
2023-04-12T13:17:13.101Z,0.90
2023-04-12T13:22:16.798Z,0.98
2023-04-12T13:27:22.729Z,0.87
2023-04-12T13:32:27.583Z,1.10
2023-04-12T13:37:30.954Z,1.10
2023-04-12T13:42:34.064Z,1.10
2023-04-12T13:47:39.659Z,1.33
2023-04-12T13:52:44.428Z,1.17
2023-04-12T13:57:47.742Z,1.30
2023-04-12T14:02:52.591Z,1.57
2023-04-12T14:07:56.258Z,1.40
2023-04-12T14:12:59.895Z,1.23
2023-04-12T14:18:04.794Z,1.10
2023-04-12T14:23:08.297Z,1.20
2023-04-12T14:28:16.739Z,1.50
2023-04-12T14:33:21.975Z,1.10
2023-04-12T14:38:25.917Z,1.00
2023-04-12T14:43:29.922Z,1.23
2023-04-12T14:48:34.913Z,1.33
2023-04-12T14:53:38.336Z,0.90
2023-04-12T14:58:41.888Z,1.00
2023-04-12T15:03:47.613Z,1.47
2023-04-12T15:08:55.241Z,1.10
2023-04-12T15:13:59.097Z,1.00
2023-04-12T15:19:10.453Z,1.20
2023-04-12T15:24:17.933Z,1.10
2023-04-12T15:29:22.441Z,1.50
2023-04-12T15:34:28.780Z,1.33
2023-04-12T15:39:32.113Z,1.10
2023-04-12T15:44:35.286Z,1.27
2023-04-12T15:49:40.298Z,1.10
2023-04-12T15:54:44.865Z,1.00
2023-04-12T15:59:50.985Z,1.23
2023-04-12T16:04:56.624Z,1.20
2023-04-12T16:10:00.025Z,1.20
2023-04-12T16:15:03.404Z,1.10
2023-04-12T16:20:10.724Z,1.10
2023-04-12T16:25:14.768Z,1.30
2023-04-12T16:30:19.531Z,1.00
2023-04-12T16:35:25.123Z,1.00
2023-04-12T16:40:29.009Z,1.30
2023-04-12T16:45:32.881Z,1.50
2023-04-12T16:50:38.148Z,3.03
2023-04-12T16:55:45.195Z,1.53
2023-04-12T17:00:49.553Z,3.50
2023-04-12T17:05:54.247Z,1.50
2023-04-12T17:10:57.354Z,1.70
2023-04-12T17:16:00.964Z,1.83
2023-04-12T17:21:06.396Z,1.10
2023-04-12T17:26:09.956Z,1.50
2023-04-12T17:31:13.487Z,1.50
2023-04-12T17:36:18.678Z,1.30
2023-04-12T17:41:22.700Z,1.90
2023-04-12T17:46:26.518Z,1.47
2023-04-12T17:51:32.394Z,1.50
2023-04-12T17:56:38.194Z,1.80
2023-04-12T18:01:42.435Z,1.43
2023-04-12T18:06:48.220Z,1.50
2023-04-12T18:11:51.686Z,1.30
2023-04-12T18:16:55.215Z,1.40
2023-04-12T18:22:00.431Z,1.30
2023-04-12T18:27:05.108Z,1.23
2023-04-12T18:32:08.188Z,1.20
2023-04-12T18:37:17.650Z,1.20
2023-04-12T18:42:21.146Z,1.20
2023-04-12T18:47:24.970Z,1.10
2023-04-12T18:52:29.795Z,1.90
2023-04-12T18:57:33.330Z,2.10
2023-04-12T19:02:44.483Z,1.30
2023-04-12T19:07:49.892Z,0.90
2023-04-12T19:12:53.148Z,0.90
2023-04-12T19:17:57.947Z,1.20
2023-04-12T19:23:07.778Z,1.50
2023-04-12T19:28:11.288Z,1.50
2023-04-12T19:33:18.412Z,1.40
2023-04-12T19:38:23.630Z,1.60
2023-04-12T19:43:26.820Z,1.63
2023-04-12T19:48:31.196Z,1.70
2023-04-12T19:53:36.046Z,1.70
2023-04-12T19:58:41.420Z,1.90
2023-04-12T20:03:45.558Z,1.70
2023-04-12T20:08:52.400Z,2.27
2023-04-12T20:13:56.287Z,2.20
2023-04-12T20:18:59.800Z,2.83
2023-04-12T20:24:08.826Z,2.60
2023-04-12T20:29:11.995Z,3.20
2023-04-12T20:34:15.126Z,2.40
2023-04-12T20:39:19.949Z,2.33
2023-04-12T20:44:23.912Z,2.80
2023-04-12T20:49:27.946Z,2.70
2023-04-12T20:54:34.107Z,2.53
2023-04-12T20:59:38.520Z,2.30
2023-04-12T21:04:42.882Z,2.33
2023-04-12T21:09:47.639Z,2.30
2023-04-12T21:14:51.508Z,1.97
2023-04-12T21:19:54.755Z,2.00
2023-04-12T21:24:59.524Z,2.50
2023-04-12T21:30:03.021Z,2.20
2023-04-12T21:35:07.497Z,2.27
2023-04-12T21:40:14.100Z,2.60
2023-04-12T21:45:17.858Z,2.40
2023-04-12T21:50:21.369Z,2.10
2023-04-12T21:55:28.413Z,2.47
2023-04-12T22:00:33.937Z,2.57
2023-04-12T22:05:39.866Z,2.40
2023-04-12T22:10:45.088Z,2.97
2023-04-12T22:15:48.287Z,3.17
2023-04-12T22:20:54.061Z,2.30
2023-04-12T22:25:58.714Z,2.50
2023-04-12T22:31:02.311Z,1.40
2023-04-12T22:36:08.922Z,1.50
2023-04-12T22:41:16.866Z,1.00
2023-04-12T22:46:21.405Z,0.80
2023-04-12T22:51:27.556Z,0.80
2023-04-12T22:56:32.631Z,0.73
2023-04-12T23:01:36.035Z,0.70
2023-04-12T23:06:40.521Z,1.00
2023-04-12T23:11:45.225Z,0.80
2023-04-12T23:16:51.808Z,0.70
2023-04-12T23:21:56.177Z,0.73
2023-04-12T23:27:01.014Z,0.70
2023-04-12T23:32:04.300Z,0.80
2023-04-12T23:37:08.833Z,0.87
2023-04-12T23:42:13.607Z,0.87
2023-04-12T23:47:17.282Z,0.90
2023-04-12T23:52:20.589Z,1.17
2023-04-12T23:57:25.268Z,1.07
